createdAt,value
2019-03-19T00:01:13.708Z,8.50
2019-03-19T00:03:43.516Z,8.50
2019-03-19T00:06:15.095Z,8.50
2019-03-19T00:08:47.924Z,8.50
2019-03-19T00:11:21.003Z,8.40
2019-03-19T00:13:50.883Z,8.40
2019-03-19T00:16:20.798Z,8.30
2019-03-19T00:18:50.744Z,8.30
2019-03-19T00:21:20.931Z,8.30
2019-03-19T00:23:50.871Z,8.20
2019-03-19T00:26:20.766Z,8.10
2019-03-19T00:28:50.626Z,7.90
2019-03-19T00:31:20.542Z,7.90
2019-03-19T00:33:50.320Z,8.00
2019-03-19T00:36:20.639Z,7.90
2019-03-19T00:38:50.498Z,7.90
2019-03-19T00:41:20.375Z,7.90
2019-03-19T00:43:50.172Z,7.80
2019-03-19T00:46:21.539Z,7.80
2019-03-19T00:48:54.207Z,7.80
2019-03-19T00:51:24.123Z,7.60
2019-03-19T00:53:53.982Z,7.70
2019-03-19T00:56:24.860Z,7.50
2019-03-19T00:58:54.667Z,7.60
2019-03-19T01:01:24.472Z,7.60
2019-03-19T01:03:54.307Z,7.60
2019-03-19T01:06:24.166Z,7.50
2019-03-19T01:08:54.111Z,7.50
2019-03-19T01:11:23.910Z,7.70
2019-03-19T01:13:55.536Z,7.70
2019-03-19T01:16:25.350Z,7.70
2019-03-19T01:18:55.231Z,7.70
2019-03-19T01:21:25.034Z,7.50
2019-03-19T01:23:55.223Z,7.50
2019-03-19T01:26:25.002Z,7.20
2019-03-19T01:28:54.847Z,7.30
2019-03-19T01:31:24.638Z,7.40
2019-03-19T01:33:54.504Z,7.50
2019-03-19T01:36:24.369Z,7.50
2019-03-19T01:39:02.235Z,7.50
2019-03-19T01:41:32.171Z,7.60
2019-03-19T01:44:01.976Z,7.60
2019-03-19T01:46:34.723Z,7.50
2019-03-19T01:49:06.282Z,7.60
2019-03-19T01:51:36.166Z,7.70
2019-03-19T01:54:05.951Z,7.30
2019-03-19T01:56:35.898Z,7.10
2019-03-19T01:59:06.257Z,7.10
2019-03-19T02:01:36.140Z,6.90
2019-03-19T02:04:06.402Z,6.80
2019-03-19T02:06:36.198Z,6.90
2019-03-19T02:09:08.182Z,6.80
2019-03-19T02:11:38.511Z,6.70
2019-03-19T02:14:09.176Z,6.60
2019-03-19T02:16:39.176Z,6.60
2019-03-19T02:19:08.968Z,6.60
2019-03-19T02:21:39.214Z,6.90
2019-03-19T02:24:10.687Z,7.00
2019-03-19T02:26:40.481Z,7.00
2019-03-19T02:29:11.010Z,7.10
2019-03-19T02:31:41.037Z,7.20
2019-03-19T02:34:11.254Z,7.00
2019-03-19T02:36:41.109Z,7.00
2019-03-19T02:39:11.631Z,7.00
2019-03-19T02:41:43.133Z,6.80
2019-03-19T02:44:15.274Z,6.90
2019-03-19T02:46:45.123Z,6.90
2019-03-19T02:49:15.045Z,6.80
2019-03-19T02:51:44.811Z,6.70
2019-03-19T02:54:14.699Z,7.00
2019-03-19T02:56:44.637Z,7.20
2019-03-19T02:59:14.439Z,7.30
2019-03-19T03:01:44.232Z,7.30
2019-03-19T03:04:14.102Z,7.40
2019-03-19T03:06:43.968Z,7.30
2019-03-19T03:09:13.993Z,7.00
2019-03-19T03:11:43.866Z,7.00
2019-03-19T03:14:13.655Z,7.10
2019-03-19T03:16:45.486Z,7.20
2019-03-19T03:19:16.202Z,7.30
2019-03-19T03:21:45.919Z,7.10
2019-03-19T03:24:15.782Z,6.90
2019-03-19T03:26:48.142Z,6.80
2019-03-19T03:29:20.448Z,6.80
2019-03-19T03:31:50.417Z,7.00
2019-03-19T03:34:20.287Z,7.10
2019-03-19T03:36:50.227Z,7.10
2019-03-19T03:39:20.104Z,7.10
2019-03-19T03:41:49.969Z,7.00
2019-03-19T03:44:19.857Z,7.00
2019-03-19T03:46:49.937Z,6.90
2019-03-19T03:49:19.740Z,6.90
2019-03-19T03:51:49.603Z,6.90
2019-03-19T03:54:19.486Z,6.90
2019-03-19T03:57:07.967Z,7.00
2019-03-19T03:59:37.861Z,7.00
2019-03-19T04:02:07.657Z,7.00
2019-03-19T04:04:37.470Z,7.00
2019-03-19T04:07:07.334Z,7.00
2019-03-19T04:09:38.790Z,7.00
2019-03-19T04:12:08.747Z,6.90
2019-03-19T04:14:38.765Z,6.90
2019-03-19T04:17:09.627Z,6.80
2019-03-19T04:19:39.439Z,6.80
2019-03-19T04:22:10.881Z,6.80
2019-03-19T04:24:40.746Z,6.80
2019-03-19T04:27:16.272Z,6.70
2019-03-19T04:29:43.237Z,6.50
2019-03-19T04:32:13.177Z,6.50
2019-03-19T04:34:44.144Z,6.60
2019-03-19T04:37:21.950Z,6.70
2019-03-19T04:39:51.765Z,6.70
2019-03-19T04:42:21.587Z,6.70
2019-03-19T04:44:51.380Z,6.80
2019-03-19T04:47:21.390Z,6.80
2019-03-19T04:49:51.253Z,6.80
2019-03-19T04:52:21.177Z,6.80
2019-03-19T04:54:50.975Z,6.70
2019-03-19T04:57:26.700Z,6.80
2019-03-19T04:59:52.275Z,6.70
2019-03-19T05:02:23.731Z,6.70
2019-03-19T05:04:53.599Z,6.70
2019-03-19T05:07:25.466Z,6.80
2019-03-19T05:09:54.983Z,6.70
2019-03-19T05:12:25.227Z,6.60
2019-03-19T05:14:55.163Z,6.60
2019-03-19T05:17:25.020Z,6.50
2019-03-19T05:19:57.984Z,6.60
2019-03-19T05:22:27.915Z,6.70
2019-03-19T05:24:57.855Z,6.70
2019-03-19T05:27:37.280Z,6.70
2019-03-19T05:30:01.943Z,6.70
2019-03-19T05:32:34.971Z,6.60
2019-03-19T05:35:06.846Z,6.60
2019-03-19T05:37:36.701Z,6.70
2019-03-19T05:40:12.769Z,6.70
2019-03-19T05:42:42.634Z,6.70
2019-03-19T05:45:17.103Z,6.70
2019-03-19T05:47:46.912Z,6.80
2019-03-19T05:50:18.635Z,6.70
2019-03-19T05:52:48.813Z,6.70
2019-03-19T05:55:22.170Z,6.70
2019-03-19T05:57:53.575Z,6.70
2019-03-19T06:00:37.357Z,6.70
2019-03-19T06:03:07.216Z,6.60
2019-03-19T06:05:41.077Z,6.70
2019-03-19T06:08:10.942Z,6.80
2019-03-19T06:10:40.957Z,6.80
2019-03-19T06:13:11.055Z,6.90
2019-03-19T06:15:41.062Z,7.00
2019-03-19T06:18:10.954Z,7.00
2019-03-19T06:20:40.747Z,7.00
2019-03-19T06:23:10.668Z,7.10
2019-03-19T06:25:40.528Z,7.20
2019-03-19T06:28:10.343Z,7.40
2019-03-19T06:30:40.279Z,7.50
2019-03-19T06:33:10.165Z,7.50
2019-03-19T06:35:40.055Z,7.70
2019-03-19T06:38:09.933Z,7.70
2019-03-19T06:40:39.789Z,7.90
2019-03-19T06:43:10.247Z,7.90
2019-03-19T06:45:40.106Z,8.00
2019-03-19T06:48:10.039Z,8.10
2019-03-19T06:50:45.199Z,8.20
2019-03-19T06:53:11.494Z,8.40
2019-03-19T06:55:41.354Z,8.60
2019-03-19T06:58:11.596Z,8.50
2019-03-19T07:00:41.511Z,8.50
2019-03-19T07:03:12.287Z,8.80
2019-03-19T07:05:44.743Z,8.90
2019-03-19T07:08:15.669Z,9.00
2019-03-19T07:10:45.455Z,8.80
2019-03-19T07:13:15.307Z,8.80
2019-03-19T07:15:45.175Z,8.90
2019-03-19T07:18:15.026Z,9.00
2019-03-19T07:20:44.820Z,9.10
2019-03-19T07:23:14.687Z,9.20
2019-03-19T07:25:44.501Z,9.30
2019-03-19T07:28:22.069Z,9.50
2019-03-19T07:30:46.132Z,9.70
2019-03-19T07:33:16.995Z,9.80
2019-03-19T07:35:46.866Z,9.90
2019-03-19T07:38:18.351Z,10.10
2019-03-19T07:40:48.230Z,9.90
2019-03-19T07:43:18.456Z,10.10
2019-03-19T07:45:48.400Z,10.30
2019-03-19T07:48:18.214Z,10.40
2019-03-19T07:50:48.023Z,10.50
2019-03-19T07:53:17.973Z,10.40
2019-03-19T07:55:47.780Z,10.30
2019-03-19T07:58:17.667Z,10.20
2019-03-19T08:00:47.551Z,10.30
2019-03-19T08:03:17.436Z,10.50
2019-03-19T08:05:47.246Z,10.70
2019-03-19T08:08:17.056Z,10.60
2019-03-19T08:10:46.871Z,10.60
2019-03-19T08:13:16.731Z,10.70
2019-03-19T08:15:49.355Z,10.70
2019-03-19T08:18:19.226Z,10.70
2019-03-19T08:21:04.967Z,11.00
2019-03-19T08:23:34.830Z,11.00
2019-03-19T08:26:04.658Z,11.20
2019-03-19T08:28:34.527Z,11.20
2019-03-19T08:31:04.341Z,11.30
2019-03-19T08:33:34.223Z,11.30
2019-03-19T08:36:09.607Z,11.40
2019-03-19T08:38:36.946Z,11.60
2019-03-19T08:41:06.605Z,11.70
2019-03-19T08:43:38.082Z,11.90
2019-03-19T08:46:08.023Z,12.20
2019-03-19T08:48:37.886Z,12.30
2019-03-19T08:51:09.458Z,12.20
2019-03-19T08:53:39.418Z,12.20
2019-03-19T08:56:10.216Z,12.20
2019-03-19T08:58:40.030Z,12.40
2019-03-19T09:01:09.911Z,12.90
2019-03-19T09:03:42.431Z,13.20
2019-03-19T09:06:12.295Z,13.40
2019-03-19T09:08:45.965Z,13.70
2019-03-19T09:11:15.822Z,14.00
2019-03-19T09:13:51.063Z,14.30
2019-03-19T09:16:21.028Z,14.30
2019-03-19T09:18:51.317Z,14.30
2019-03-19T09:21:21.177Z,14.00
2019-03-19T09:23:50.991Z,13.90
2019-03-19T09:26:20.854Z,14.10
2019-03-19T09:28:50.733Z,14.20
2019-03-19T09:31:23.075Z,14.20
2019-03-19T09:36:42.287Z,14.40
2019-03-19T09:39:12.172Z,14.40
2019-03-19T09:41:42.473Z,14.40
2019-03-19T09:44:13.801Z,14.70
2019-03-19T09:46:43.747Z,14.80
2019-03-19T09:49:13.633Z,15.00
2019-03-19T09:51:43.426Z,14.80
2019-03-19T09:54:13.387Z,15.10
2019-03-19T09:56:44.844Z,14.90
2019-03-19T09:59:14.636Z,15.20
2019-03-19T10:01:44.513Z,15.30
2019-03-19T10:04:14.768Z,15.60
2019-03-19T10:06:44.637Z,15.90
2019-03-19T10:09:14.519Z,15.80
2019-03-19T10:11:44.398Z,15.90
2019-03-19T10:14:14.275Z,15.60
2019-03-19T10:16:44.110Z,15.40
2019-03-19T10:19:14.051Z,15.20
2019-03-19T10:21:44.046Z,15.60
2019-03-19T10:24:13.911Z,15.90
2019-03-19T10:26:43.863Z,16.00
2019-03-19T10:29:14.053Z,16.40
2019-03-19T10:31:43.853Z,16.40
2019-03-19T10:34:13.793Z,15.80
2019-03-19T10:36:46.187Z,15.90
2019-03-19T10:39:16.057Z,16.00
2019-03-19T10:41:45.932Z,16.60
2019-03-19T10:44:15.749Z,16.70
2019-03-19T10:46:45.571Z,16.90
2019-03-19T10:49:15.387Z,17.00
2019-03-19T10:51:45.268Z,17.00
2019-03-19T10:54:16.994Z,17.10
2019-03-19T10:56:46.871Z,16.90
2019-03-19T10:59:16.758Z,17.10
2019-03-19T11:01:46.639Z,16.90
2019-03-19T11:04:16.538Z,16.80
2019-03-19T11:06:47.563Z,17.10
2019-03-19T11:09:17.346Z,16.90
2019-03-19T11:11:47.156Z,16.70
2019-03-19T11:14:17.027Z,16.40
2019-03-19T11:16:46.979Z,16.30
2019-03-19T11:19:20.123Z,16.30
2019-03-19T11:21:50.070Z,16.40
2019-03-19T11:24:19.947Z,16.80
2019-03-19T11:26:49.881Z,16.90
2019-03-19T11:29:19.766Z,17.10
2019-03-19T11:31:49.925Z,17.80
2019-03-19T11:34:21.427Z,17.90
2019-03-19T11:36:57.757Z,17.80
2019-03-19T11:39:26.107Z,17.60
2019-03-19T11:41:57.275Z,17.30
2019-03-19T11:44:27.085Z,17.20
2019-03-19T11:46:57.036Z,17.80
2019-03-19T11:49:26.846Z,17.40
2019-03-19T11:51:56.662Z,17.30
2019-03-19T11:54:27.157Z,17.30
2019-03-19T11:56:59.245Z,16.90
2019-03-19T11:59:32.297Z,17.30
2019-03-19T12:02:03.596Z,16.80
2019-03-19T12:04:40.156Z,17.20
2019-03-19T12:07:09.952Z,17.20
2019-03-19T12:09:40.202Z,17.70
2019-03-19T12:12:11.687Z,17.20
2019-03-19T12:14:41.681Z,17.50
2019-03-19T12:17:11.571Z,17.90
2019-03-19T12:19:41.762Z,18.70
2019-03-19T12:22:11.571Z,18.50
2019-03-19T12:24:41.438Z,18.70
2019-03-19T12:27:11.401Z,18.70
2019-03-19T12:29:41.215Z,18.70
2019-03-19T12:32:11.061Z,19.00
2019-03-19T12:34:40.999Z,18.90
2019-03-19T12:37:11.163Z,19.00
2019-03-19T12:39:42.259Z,19.10
2019-03-19T12:42:12.423Z,18.80
2019-03-19T12:44:42.331Z,18.80
2019-03-19T12:47:12.204Z,19.10
2019-03-19T12:49:42.011Z,19.40
2019-03-19T12:52:11.961Z,19.80
2019-03-19T12:54:41.895Z,19.50
2019-03-19T12:57:11.803Z,20.30
2019-03-19T12:59:42.599Z,20.30
2019-03-19T13:02:13.195Z,21.00
2019-03-19T13:04:43.152Z,21.40
2019-03-19T13:07:13.501Z,22.10
2019-03-19T13:09:43.441Z,23.30
2019-03-19T13:12:13.306Z,23.30
2019-03-19T13:14:43.122Z,22.80
2019-03-19T13:17:13.402Z,21.10
2019-03-19T13:19:43.287Z,20.30
2019-03-19T13:22:13.160Z,19.60
2019-03-19T13:24:44.690Z,18.90
2019-03-19T13:27:14.467Z,19.30
2019-03-19T13:29:44.793Z,19.50
2019-03-19T13:32:19.637Z,18.60
2019-03-19T13:34:51.120Z,18.50
2019-03-19T13:37:20.906Z,18.60
2019-03-19T13:39:50.841Z,18.60
2019-03-19T13:42:20.699Z,18.30
2019-03-19T13:44:50.629Z,18.20
2019-03-19T13:47:20.605Z,18.20
2019-03-19T13:49:50.531Z,18.00
2019-03-19T13:52:20.374Z,18.30
2019-03-19T13:54:50.229Z,19.10
2019-03-19T13:57:20.331Z,22.00
2019-03-19T13:59:50.560Z,25.70
2019-03-19T14:02:20.520Z,28.10
2019-03-19T14:04:50.413Z,30.10
2019-03-19T14:07:20.233Z,31.30
2019-03-19T14:09:50.113Z,34.00
2019-03-19T14:12:19.923Z,35.10
2019-03-19T14:17:39.247Z,34.80
2019-03-19T14:20:12.229Z,35.60
2019-03-19T14:22:42.084Z,34.40
2019-03-19T14:25:12.948Z,33.00
2019-03-19T14:27:42.877Z,33.60
2019-03-19T14:30:17.740Z,31.40
2019-03-19T14:32:47.964Z,30.40
2019-03-19T14:35:17.876Z,28.30
2019-03-19T14:37:49.276Z,26.80
2019-03-19T14:40:24.209Z,24.20
2019-03-19T14:42:58.304Z,22.50
2019-03-19T14:45:27.246Z,22.90
2019-03-19T14:47:57.193Z,22.40
2019-03-19T14:50:27.096Z,21.90
2019-03-19T14:52:57.043Z,21.60
2019-03-19T14:55:26.871Z,21.00
2019-03-19T14:57:56.823Z,20.60
2019-03-19T15:00:26.764Z,20.00
2019-03-19T15:02:56.582Z,18.70
2019-03-19T15:05:26.457Z,18.80
2019-03-19T15:11:02.242Z,18.50
2019-03-19T15:13:33.810Z,17.90
2019-03-19T15:16:03.767Z,18.00
2019-03-19T15:18:33.748Z,17.60
2019-03-19T15:21:05.131Z,17.40
2019-03-19T15:23:35.026Z,17.30
2019-03-19T15:26:06.526Z,17.20
2019-03-19T15:28:36.447Z,16.90
2019-03-19T15:31:08.014Z,16.50
2019-03-19T15:33:40.218Z,16.60
2019-03-19T15:36:10.004Z,16.70
2019-03-19T15:38:43.091Z,16.50
2019-03-19T15:41:14.679Z,16.40
2019-03-19T15:43:44.555Z,16.30
2019-03-19T15:46:14.370Z,16.40
2019-03-19T15:48:44.243Z,16.20
2019-03-19T15:51:14.123Z,16.30
2019-03-19T15:53:44.059Z,16.30
2019-03-19T15:56:13.996Z,16.30
2019-03-19T16:02:20.208Z,16.30
2019-03-19T16:04:51.850Z,16.30
2019-03-19T16:07:21.687Z,16.20
2019-03-19T16:09:53.163Z,16.20
2019-03-19T16:12:22.965Z,16.30
2019-03-19T16:14:52.874Z,16.20
2019-03-19T16:17:22.723Z,16.00
2019-03-19T16:19:52.517Z,15.70
2019-03-19T16:22:22.438Z,15.50
2019-03-19T16:24:52.287Z,15.40
2019-03-19T16:27:22.157Z,15.20
2019-03-19T16:29:52.022Z,15.20
2019-03-19T16:32:21.824Z,15.10
2019-03-19T16:34:51.699Z,14.80
2019-03-19T16:37:22.026Z,14.60
2019-03-19T16:39:51.896Z,14.60
2019-03-19T16:42:21.823Z,14.60
2019-03-19T16:44:53.208Z,14.40
2019-03-19T16:47:23.167Z,14.40
2019-03-19T16:49:53.095Z,14.50
2019-03-19T16:52:23.024Z,14.40
2019-03-19T16:54:52.980Z,14.20
2019-03-19T16:57:22.855Z,14.20
2019-03-19T16:59:53.081Z,14.10
2019-03-19T17:02:23.960Z,14.00
2019-03-19T17:04:53.779Z,14.00
2019-03-19T17:07:23.740Z,13.90
2019-03-19T17:09:55.450Z,13.80
2019-03-19T17:12:25.684Z,13.70
2019-03-19T17:14:57.098Z,13.60
2019-03-19T17:17:26.901Z,13.50
2019-03-19T17:19:57.863Z,13.30
2019-03-19T17:22:27.661Z,13.20
2019-03-19T17:24:57.608Z,13.30
2019-03-19T17:27:27.554Z,13.20
2019-03-19T17:29:57.430Z,13.20
2019-03-19T17:32:27.238Z,13.00
2019-03-19T17:34:57.507Z,13.00
2019-03-19T17:37:27.478Z,13.00
2019-03-19T17:39:59.259Z,12.90
2019-03-19T17:42:29.487Z,12.80
2019-03-19T17:44:59.374Z,12.70
2019-03-19T17:47:29.269Z,12.60
2019-03-19T17:49:59.210Z,12.60
2019-03-19T17:52:30.484Z,12.50
2019-03-19T17:55:00.374Z,12.40
2019-03-19T17:57:33.485Z,12.30
2019-03-19T18:00:04.677Z,12.40
2019-03-19T18:02:34.657Z,12.20
2019-03-19T18:05:07.142Z,12.10
2019-03-19T18:07:37.092Z,12.10
2019-03-19T18:10:10.234Z,12.10
2019-03-19T18:12:40.233Z,12.10
2019-03-19T18:15:14.659Z,12.00
2019-03-19T18:17:49.775Z,12.10
2019-03-19T18:20:19.588Z,11.90
2019-03-19T18:22:51.243Z,11.90
2019-03-19T18:25:21.232Z,11.90
2019-03-19T18:27:52.746Z,11.90
2019-03-19T18:30:25.626Z,11.90
2019-03-19T18:46:41.098Z,11.60
2019-03-19T18:49:10.991Z,11.60
2019-03-19T18:51:40.876Z,11.60
2019-03-19T18:54:10.687Z,11.50
2019-03-19T18:59:18.648Z,11.70
2019-03-19T19:01:48.973Z,11.80
2019-03-19T19:04:19.195Z,11.80
2019-03-19T19:06:49.313Z,11.90
2019-03-19T19:09:19.534Z,11.80
2019-03-19T19:11:49.653Z,11.80
2019-03-19T19:14:19.772Z,11.80
2019-03-19T19:16:49.995Z,11.80
2019-03-19T19:19:20.841Z,11.70
2019-03-19T19:21:52.487Z,11.70
2019-03-19T19:24:22.709Z,11.60
2019-03-19T19:26:52.931Z,11.50
2019-03-19T19:29:24.997Z,11.50
2019-03-19T19:31:55.216Z,11.40
2019-03-19T19:34:25.448Z,11.40
2019-03-19T19:36:55.560Z,11.30
2019-03-19T19:39:25.677Z,11.40
2019-03-19T19:41:57.410Z,11.50
2019-03-19T19:44:30.627Z,11.50
2019-03-19T19:47:00.833Z,11.50
2019-03-19T19:49:31.070Z,11.20
2019-03-19T19:52:01.292Z,11.30
2019-03-19T19:54:31.412Z,11.30
2019-03-19T19:57:03.362Z,11.30
2019-03-19T19:59:33.698Z,11.10
2019-03-19T20:02:06.892Z,11.00
2019-03-19T20:05:02.853Z,11.00
2019-03-19T20:07:28.434Z,10.90
2019-03-19T20:09:59.867Z,10.90
2019-03-19T20:12:32.867Z,10.80
2019-03-19T20:15:09.437Z,10.80
2019-03-19T20:17:39.046Z,10.80
2019-03-19T20:20:12.519Z,10.80
2019-03-19T20:22:45.061Z,10.90
2019-03-19T20:25:15.238Z,10.90
2019-03-19T20:27:47.099Z,10.80
2019-03-19T20:30:22.338Z,10.70
2019-03-19T20:32:52.752Z,10.80
2019-03-19T20:35:22.986Z,10.80
2019-03-19T20:37:53.216Z,10.80
2019-03-19T20:40:23.854Z,10.80
2019-03-19T20:42:54.178Z,10.90
2019-03-19T20:45:26.427Z,10.80
2019-03-19T20:47:56.557Z,11.00
2019-03-19T20:50:34.251Z,11.00
2019-03-19T20:53:04.475Z,10.90
2019-03-19T20:55:34.489Z,10.80
2019-03-19T20:58:06.046Z,10.90
2019-03-19T21:00:36.162Z,11.00
2019-03-19T21:03:06.486Z,11.00
2019-03-19T21:05:36.709Z,11.00
2019-03-19T21:08:06.724Z,11.00
2019-03-19T21:10:36.946Z,11.00
2019-03-19T21:13:07.373Z,11.10
2019-03-19T21:15:39.544Z,11.10
2019-03-19T21:18:10.786Z,11.10
2019-03-19T21:20:41.521Z,10.90
2019-03-19T21:23:13.687Z,10.90
2019-03-19T21:25:43.909Z,11.00
2019-03-19T21:28:14.690Z,11.00
2019-03-19T21:30:45.175Z,11.00
2019-03-19T21:33:15.497Z,11.10
2019-03-19T21:35:46.640Z,11.00
2019-03-19T21:38:17.168Z,11.00
2019-03-19T21:40:47.290Z,11.00
2019-03-19T21:43:17.615Z,11.10
2019-03-19T21:45:50.397Z,11.10
2019-03-19T21:48:20.720Z,11.00
2019-03-19T21:50:50.838Z,11.10
2019-03-19T21:53:25.463Z,11.00
2019-03-19T21:55:55.804Z,11.00
2019-03-19T21:58:27.899Z,10.90
2019-03-19T22:00:58.487Z,10.90
2019-03-19T22:03:28.605Z,11.00
2019-03-19T22:05:59.952Z,11.00
2019-03-19T22:08:30.175Z,10.90
2019-03-19T22:11:00.725Z,10.90
2019-03-19T22:13:31.026Z,11.10
2019-03-19T22:16:01.043Z,11.10
2019-03-19T22:18:31.269Z,11.10
2019-03-19T22:21:01.383Z,11.20
2019-03-19T22:23:32.935Z,11.20
2019-03-19T22:26:05.922Z,11.30
2019-03-19T22:28:36.044Z,11.30
2019-03-19T22:31:06.064Z,11.20
2019-03-19T22:33:36.283Z,11.10
2019-03-19T22:36:07.016Z,11.00
2019-03-19T22:38:37.237Z,11.00
2019-03-19T22:41:10.027Z,11.10
2019-03-19T22:43:40.752Z,11.10
2019-03-19T22:46:21.404Z,11.10
2019-03-19T22:48:43.858Z,11.00
2019-03-19T22:51:14.085Z,11.00
2019-03-19T22:53:44.715Z,11.00
2019-03-19T22:56:14.944Z,11.00
2019-03-19T22:58:45.056Z,11.00
2019-03-19T23:01:15.584Z,11.00
2019-03-19T23:03:45.805Z,11.10
2019-03-19T23:09:03.760Z,11.10
2019-03-19T23:11:35.723Z,11.00
2019-03-19T23:14:08.095Z,11.10
2019-03-19T23:16:38.524Z,11.10
2019-03-19T23:19:10.384Z,11.00
2019-03-19T23:21:41.528Z,11.00
2019-03-19T23:24:16.152Z,11.00
2019-03-19T23:26:46.372Z,11.00
2019-03-19T23:29:17.856Z,11.10
2019-03-19T23:31:47.839Z,11.10
2019-03-19T23:34:18.166Z,11.00
2019-03-19T23:36:49.204Z,11.10
2019-03-19T23:39:19.429Z,11.10
2019-03-19T23:41:52.413Z,11.10
2019-03-19T23:44:24.205Z,11.10
2019-03-19T23:46:54.597Z,11.20
2019-03-19T23:49:26.357Z,11.30
2019-03-19T23:51:57.603Z,11.20
2019-03-19T23:54:29.359Z,11.10
2019-03-19T23:56:59.581Z,11.10
2019-03-19T23:59:31.749Z,10.90
